sensor_id;sensor_type;location;lat;lon;timestamp;temperature;humidity
24444;DHT22;13346;50.984;5.822;2024-01-30T00:01:16;9.60;99.90
24444;DHT22;13346;50.984;5.822;2024-01-30T00:03:44;9.60;99.90
24444;DHT22;13346;50.984;5.822;2024-01-30T00:06:11;9.60;99.90
24444;DHT22;13346;50.984;5.822;2024-01-30T00:08:38;9.60;99.90
24444;DHT22;13346;50.984;5.822;2024-01-30T00:11:07;9.50;99.90
24444;DHT22;13346;50.984;5.822;2024-01-30T00:13:34;9.40;99.90
24444;DHT22;13346;50.984;5.822;2024-01-30T00:16:01;9.40;99.90
24444;DHT22;13346;50.984;5.822;2024-01-30T00:18:29;9.40;99.90
24444;DHT22;13346;50.984;5.822;2024-01-30T00:20:58;9.40;99.90
24444;DHT22;13346;50.984;5.822;2024-01-30T00:23:25;9.40;99.90
24444;DHT22;13346;50.984;5.822;2024-01-30T00:25:52;9.40;99.90
24444;DHT22;13346;50.984;5.822;2024-01-30T00:28:19;9.40;99.90
24444;DHT22;13346;50.984;5.822;2024-01-30T00:30:46;9.50;99.90
24444;DHT22;13346;50.984;5.822;2024-01-30T00:33:13;9.50;99.90
24444;DHT22;13346;50.984;5.822;2024-01-30T00:35:41;9.50;99.90
24444;DHT22;13346;50.984;5.822;2024-01-30T00:38:10;9.50;99.90
24444;DHT22;13346;50.984;5.822;2024-01-30T00:40:37;9.60;99.90
24444;DHT22;13346;50.984;5.822;2024-01-30T00:43:04;9.60;99.90
24444;DHT22;13346;50.984;5.822;2024-01-30T00:45:31;9.60;99.90
24444;DHT22;13346;50.984;5.822;2024-01-30T00:47:58;9.60;99.90
24444;DHT22;13346;50.984;5.822;2024-01-30T00:50:25;9.60;99.90
24444;DHT22;13346;50.984;5.822;2024-01-30T00:52:52;9.70;99.90
24444;DHT22;13346;50.984;5.822;2024-01-30T00:55:21;9.60;99.90
24444;DHT22;13346;50.984;5.822;2024-01-30T00:57:48;9.70;99.90
24444;DHT22;13346;50.984;5.822;2024-01-30T01:00:15;9.80;99.90
24444;DHT22;13346;50.984;5.822;2024-01-30T01:02:43;9.80;99.90
24444;DHT22;13346;50.984;5.822;2024-01-30T01:05:10;9.90;99.90
24444;DHT22;13346;50.984;5.822;2024-01-30T01:07:37;9.90;99.90
24444;DHT22;13346;50.984;5.822;2024-01-30T01:10:06;9.80;99.90
24444;DHT22;13346;50.984;5.822;2024-01-30T01:12:35;9.80;99.90
24444;DHT22;13346;50.984;5.822;2024-01-30T01:15:03;9.70;99.90
24444;DHT22;13346;50.984;5.822;2024-01-30T01:17:30;9.70;99.90
24444;DHT22;13346;50.984;5.822;2024-01-30T01:19:57;9.80;99.90
24444;DHT22;13346;50.984;5.822;2024-01-30T01:22:24;9.90;99.90
24444;DHT22;13346;50.984;5.822;2024-01-30T01:24:51;10.00;99.90
24444;DHT22;13346;50.984;5.822;2024-01-30T01:27:18;10.00;99.90
24444;DHT22;13346;50.984;5.822;2024-01-30T01:29:48;10.00;99.90
24444;DHT22;13346;50.984;5.822;2024-01-30T01:32:15;10.10;99.90
24444;DHT22;13346;50.984;5.822;2024-01-30T01:34:42;10.10;99.90
24444;DHT22;13346;50.984;5.822;2024-01-30T01:37:09;10.10;99.90
24444;DHT22;13346;50.984;5.822;2024-01-30T01:39:36;10.00;99.90
24444;DHT22;13346;50.984;5.822;2024-01-30T01:42:04;10.00;99.90
24444;DHT22;13346;50.984;5.822;2024-01-30T01:44:31;10.00;99.90
24444;DHT22;13346;50.984;5.822;2024-01-30T01:47:00;10.10;99.90
24444;DHT22;13346;50.984;5.822;2024-01-30T01:49:28;10.00;99.90
24444;DHT22;13346;50.984;5.822;2024-01-30T01:51:56;10.00;99.90
24444;DHT22;13346;50.984;5.822;2024-01-30T01:54:24;9.90;99.90
24444;DHT22;13346;50.984;5.822;2024-01-30T01:56:52;10.00;99.90
24444;DHT22;13346;50.984;5.822;2024-01-30T01:59:20;9.90;99.90
24444;DHT22;13346;50.984;5.822;2024-01-30T02:01:48;9.90;99.90
24444;DHT22;13346;50.984;5.822;2024-01-30T02:04:17;9.80;99.90
24444;DHT22;13346;50.984;5.822;2024-01-30T02:06:44;9.80;99.90
24444;DHT22;13346;50.984;5.822;2024-01-30T02:09:11;9.90;99.90
24444;DHT22;13346;50.984;5.822;2024-01-30T02:11:39;9.90;99.90
24444;DHT22;13346;50.984;5.822;2024-01-30T02:14:06;9.90;99.90
24444;DHT22;13346;50.984;5.822;2024-01-30T02:16:33;10.00;99.90
24444;DHT22;13346;50.984;5.822;2024-01-30T02:19:00;10.10;99.90
24444;DHT22;13346;50.984;5.822;2024-01-30T02:21:29;10.20;99.90
24444;DHT22;13346;50.984;5.822;2024-01-30T02:23:57;10.20;99.90
24444;DHT22;13346;50.984;5.822;2024-01-30T02:26:25;10.30;99.90
24444;DHT22;13346;50.984;5.822;2024-01-30T02:28:52;10.40;99.90
24444;DHT22;13346;50.984;5.822;2024-01-30T02:31:19;10.50;99.90
24444;DHT22;13346;50.984;5.822;2024-01-30T02:33:46;10.50;99.90
24444;DHT22;13346;50.984;5.822;2024-01-30T02:36:14;10.50;99.90
24444;DHT22;13346;50.984;5.822;2024-01-30T02:38:42;10.50;99.90
24444;DHT22;13346;50.984;5.822;2024-01-30T02:41:09;10.50;99.90
24444;DHT22;13346;50.984;5.822;2024-01-30T02:43:36;10.40;99.90
24444;DHT22;13346;50.984;5.822;2024-01-30T02:46:04;10.60;99.90
24444;DHT22;13346;50.984;5.822;2024-01-30T02:48:31;10.60;99.90
24444;DHT22;13346;50.984;5.822;2024-01-30T02:50:58;10.50;99.90
24444;DHT22;13346;50.984;5.822;2024-01-30T02:53:25;10.60;99.90
24444;DHT22;13346;50.984;5.822;2024-01-30T02:55:54;10.50;99.90
24444;DHT22;13346;50.984;5.822;2024-01-30T02:58:21;10.40;99.90
24444;DHT22;13346;50.984;5.822;2024-01-30T03:00:49;10.50;99.90
24444;DHT22;13346;50.984;5.822;2024-01-30T03:03:16;10.40;99.90
24444;DHT22;13346;50.984;5.822;2024-01-30T03:05:43;10.40;99.90
24444;DHT22;13346;50.984;5.822;2024-01-30T03:08:10;10.50;99.90
24444;DHT22;13346;50.984;5.822;2024-01-30T03:10:37;10.70;99.90
24444;DHT22;13346;50.984;5.822;2024-01-30T03:13:06;10.70;99.90
24444;DHT22;13346;50.984;5.822;2024-01-30T03:15:33;10.70;99.90
24444;DHT22;13346;50.984;5.822;2024-01-30T03:18:00;10.70;99.90
24444;DHT22;13346;50.984;5.822;2024-01-30T03:20:27;10.70;99.90
24444;DHT22;13346;50.984;5.822;2024-01-30T03:22:55;10.70;99.90
24444;DHT22;13346;50.984;5.822;2024-01-30T03:25:22;10.70;99.90
24444;DHT22;13346;50.984;5.822;2024-01-30T03:27:49;10.90;99.90
24444;DHT22;13346;50.984;5.822;2024-01-30T03:30:18;11.00;99.90
24444;DHT22;13346;50.984;5.822;2024-01-30T03:32:44;11.10;99.90
24444;DHT22;13346;50.984;5.822;2024-01-30T03:35:11;11.00;99.90
24444;DHT22;13346;50.984;5.822;2024-01-30T03:37:38;11.00;99.90
24444;DHT22;13346;50.984;5.822;2024-01-30T03:40:06;11.10;99.90
24444;DHT22;13346;50.984;5.822;2024-01-30T03:42:34;11.20;99.90
24444;DHT22;13346;50.984;5.822;2024-01-30T03:45:01;11.20;99.90
24444;DHT22;13346;50.984;5.822;2024-01-30T03:47:30;11.10;99.90
24444;DHT22;13346;50.984;5.822;2024-01-30T03:49:57;11.00;99.90
24444;DHT22;13346;50.984;5.822;2024-01-30T03:52:24;11.10;99.90
24444;DHT22;13346;50.984;5.822;2024-01-30T03:54:51;11.20;99.90
24444;DHT22;13346;50.984;5.822;2024-01-30T03:57:18;11.20;99.90
24444;DHT22;13346;50.984;5.822;2024-01-30T03:59:45;11.20;99.90
24444;DHT22;13346;50.984;5.822;2024-01-30T04:02:12;11.20;99.90
24444;DHT22;13346;50.984;5.822;2024-01-30T04:04:41;11.20;99.90
24444;DHT22;13346;50.984;5.822;2024-01-30T04:07:08;11.40;99.90
24444;DHT22;13346;50.984;5.822;2024-01-30T04:09:35;11.30;99.90
24444;DHT22;13346;50.984;5.822;2024-01-30T04:12:02;11.20;99.90
24444;DHT22;13346;50.984;5.822;2024-01-30T04:14:29;11.20;99.90
24444;DHT22;13346;50.984;5.822;2024-01-30T04:16:56;11.20;99.90
24444;DHT22;13346;50.984;5.822;2024-01-30T04:19:24;11.20;99.90
24444;DHT22;13346;50.984;5.822;2024-01-30T04:21:52;11.10;99.90
24444;DHT22;13346;50.984;5.822;2024-01-30T04:24:19;11.00;99.90
24444;DHT22;13346;50.984;5.822;2024-01-30T04:26:46;11.00;99.90
24444;DHT22;13346;50.984;5.822;2024-01-30T04:29:13;11.10;99.90
24444;DHT22;13346;50.984;5.822;2024-01-30T04:31:40;11.10;99.90
24444;DHT22;13346;50.984;5.822;2024-01-30T04:34:07;11.10;99.90
24444;DHT22;13346;50.984;5.822;2024-01-30T04:36:35;11.00;99.90
24444;DHT22;13346;50.984;5.822;2024-01-30T04:39:03;10.90;99.90
24444;DHT22;13346;50.984;5.822;2024-01-30T04:41:30;11.00;99.90
24444;DHT22;13346;50.984;5.822;2024-01-30T04:43:58;11.10;99.90
24444;DHT22;13346;50.984;5.822;2024-01-30T04:46:25;11.10;99.90
24444;DHT22;13346;50.984;5.822;2024-01-30T04:48:52;11.20;99.90
24444;DHT22;13346;50.984;5.822;2024-01-30T04:51:19;11.30;99.90
24444;DHT22;13346;50.984;5.822;2024-01-30T04:53:46;11.30;99.90
24444;DHT22;13346;50.984;5.822;2024-01-30T04:56:14;11.30;99.90
24444;DHT22;13346;50.984;5.822;2024-01-30T04:58:41;11.40;99.90
24444;DHT22;13346;50.984;5.822;2024-01-30T05:01:08;11.50;99.90
24444;DHT22;13346;50.984;5.822;2024-01-30T05:03:35;11.60;99.90
24444;DHT22;13346;50.984;5.822;2024-01-30T05:06:03;11.50;99.90
24444;DHT22;13346;50.984;5.822;2024-01-30T05:08:30;11.60;99.90
24444;DHT22;13346;50.984;5.822;2024-01-30T05:11:00;11.40;99.90
24444;DHT22;13346;50.984;5.822;2024-01-30T05:13:30;11.40;99.90
24444;DHT22;13346;50.984;5.822;2024-01-30T05:15:57;11.40;99.90
24444;DHT22;13346;50.984;5.822;2024-01-30T05:18:25;11.40;99.90
24444;DHT22;13346;50.984;5.822;2024-01-30T05:20:52;11.40;99.90
24444;DHT22;13346;50.984;5.822;2024-01-30T05:23:19;11.40;99.90
24444;DHT22;13346;50.984;5.822;2024-01-30T05:25:46;11.50;99.90
24444;DHT22;13346;50.984;5.822;2024-01-30T05:28:13;11.50;99.90
24444;DHT22;13346;50.984;5.822;2024-01-30T05:30:41;11.40;99.90
24444;DHT22;13346;50.984;5.822;2024-01-30T05:33:08;11.40;99.90
24444;DHT22;13346;50.984;5.822;2024-01-30T05:35:37;11.30;99.90
24444;DHT22;13346;50.984;5.822;2024-01-30T05:38:04;11.40;99.90
24444;DHT22;13346;50.984;5.822;2024-01-30T05:40:32;11.30;99.90
24444;DHT22;13346;50.984;5.822;2024-01-30T05:42:59;11.30;99.90
24444;DHT22;13346;50.984;5.822;2024-01-30T05:45:28;11.20;99.90
24444;DHT22;13346;50.984;5.822;2024-01-30T05:47:56;11.40;99.90
24444;DHT22;13346;50.984;5.822;2024-01-30T05:50:24;11.30;99.90
24444;DHT22;13346;50.984;5.822;2024-01-30T05:52:52;11.30;99.90
24444;DHT22;13346;50.984;5.822;2024-01-30T05:55:19;11.40;99.90
24444;DHT22;13346;50.984;5.822;2024-01-30T05:57:46;11.20;99.90
24444;DHT22;13346;50.984;5.822;2024-01-30T06:00:14;11.20;99.90
24444;DHT22;13346;50.984;5.822;2024-01-30T06:02:42;11.10;99.90
24444;DHT22;13346;50.984;5.822;2024-01-30T06:05:10;11.10;99.90
24444;DHT22;13346;50.984;5.822;2024-01-30T06:07:38;11.10;99.90
24444;DHT22;13346;50.984;5.822;2024-01-30T06:10:06;11.20;99.90
24444;DHT22;13346;50.984;5.822;2024-01-30T06:12:34;11.20;99.90
24444;DHT22;13346;50.984;5.822;2024-01-30T06:15:01;11.20;99.90
24444;DHT22;13346;50.984;5.822;2024-01-30T06:17:28;11.20;99.90
24444;DHT22;13346;50.984;5.822;2024-01-30T06:19:56;11.20;99.90
24444;DHT22;13346;50.984;5.822;2024-01-30T06:22:24;11.20;99.90
24444;DHT22;13346;50.984;5.822;2024-01-30T06:24:52;11.20;99.90
24444;DHT22;13346;50.984;5.822;2024-01-30T06:27:19;11.20;99.90
24444;DHT22;13346;50.984;5.822;2024-01-30T06:29:46;11.10;99.90
24444;DHT22;13346;50.984;5.822;2024-01-30T06:32:13;11.10;99.90
24444;DHT22;13346;50.984;5.822;2024-01-30T06:34:41;11.10;99.90
24444;DHT22;13346;50.984;5.822;2024-01-30T06:37:10;11.20;99.90
24444;DHT22;13346;50.984;5.822;2024-01-30T06:39:38;11.10;99.90
24444;DHT22;13346;50.984;5.822;2024-01-30T06:42:05;11.20;99.90
24444;DHT22;13346;50.984;5.822;2024-01-30T06:44:33;11.10;99.90
24444;DHT22;13346;50.984;5.822;2024-01-30T06:47:00;11.10;99.90
24444;DHT22;13346;50.984;5.822;2024-01-30T06:49:27;11.00;99.90
24444;DHT22;13346;50.984;5.822;2024-01-30T06:51:54;11.10;99.90
24444;DHT22;13346;50.984;5.822;2024-01-30T06:54:21;11.20;99.90
24444;DHT22;13346;50.984;5.822;2024-01-30T06:56:50;11.30;99.90
24444;DHT22;13346;50.984;5.822;2024-01-30T06:59:17;11.30;99.90
24444;DHT22;13346;50.984;5.822;2024-01-30T07:01:44;11.30;99.90
24444;DHT22;13346;50.984;5.822;2024-01-30T07:04:11;11.30;99.90
24444;DHT22;13346;50.984;5.822;2024-01-30T07:06:39;11.40;99.90
24444;DHT22;13346;50.984;5.822;2024-01-30T07:09:06;11.50;99.90
24444;DHT22;13346;50.984;5.822;2024-01-30T07:11:34;11.50;99.90
24444;DHT22;13346;50.984;5.822;2024-01-30T07:14:03;11.40;99.90
24444;DHT22;13346;50.984;5.822;2024-01-30T07:16:30;11.30;99.90
24444;DHT22;13346;50.984;5.822;2024-01-30T07:18:57;11.20;99.90
24444;DHT22;13346;50.984;5.822;2024-01-30T07:21:24;11.20;99.90
24444;DHT22;13346;50.984;5.822;2024-01-30T07:23:54;11.30;99.90
24444;DHT22;13346;50.984;5.822;2024-01-30T07:26:21;11.30;99.90
24444;DHT22;13346;50.984;5.822;2024-01-30T07:28:48;11.30;99.90
24444;DHT22;13346;50.984;5.822;2024-01-30T07:31:17;11.30;99.90
24444;DHT22;13346;50.984;5.822;2024-01-30T07:33:46;11.20;99.90
24444;DHT22;13346;50.984;5.822;2024-01-30T07:36:13;11.20;99.90
24444;DHT22;13346;50.984;5.822;2024-01-30T07:38:41;11.30;99.90
24444;DHT22;13346;50.984;5.822;2024-01-30T07:41:08;11.40;99.90
24444;DHT22;13346;50.984;5.822;2024-01-30T07:43:35;11.30;99.90
24444;DHT22;13346;50.984;5.822;2024-01-30T07:46:02;11.30;99.90
24444;DHT22;13346;50.984;5.822;2024-01-30T07:48:31;11.30;99.90
24444;DHT22;13346;50.984;5.822;2024-01-30T07:50:59;11.30;99.90
24444;DHT22;13346;50.984;5.822;2024-01-30T07:53:28;11.20;99.90
24444;DHT22;13346;50.984;5.822;2024-01-30T07:55:56;11.20;99.90
24444;DHT22;13346;50.984;5.822;2024-01-30T07:58:23;11.20;99.90
24444;DHT22;13346;50.984;5.822;2024-01-30T08:00:53;11.30;99.90
24444;DHT22;13346;50.984;5.822;2024-01-30T08:03:22;11.30;99.90
24444;DHT22;13346;50.984;5.822;2024-01-30T08:05:51;11.30;99.90
24444;DHT22;13346;50.984;5.822;2024-01-30T08:08:18;11.30;99.90
24444;DHT22;13346;50.984;5.822;2024-01-30T08:10:45;11.30;99.90
24444;DHT22;13346;50.984;5.822;2024-01-30T08:13:12;11.30;99.90
24444;DHT22;13346;50.984;5.822;2024-01-30T08:15:39;11.30;99.90
24444;DHT22;13346;50.984;5.822;2024-01-30T08:18:06;11.30;99.90
24444;DHT22;13346;50.984;5.822;2024-01-30T08:20:34;11.20;99.90
24444;DHT22;13346;50.984;5.822;2024-01-30T08:23:02;11.20;99.90
24444;DHT22;13346;50.984;5.822;2024-01-30T08:25:30;11.20;99.90
24444;DHT22;13346;50.984;5.822;2024-01-30T08:27:57;11.20;99.90
24444;DHT22;13346;50.984;5.822;2024-01-30T08:30:24;11.20;99.90
24444;DHT22;13346;50.984;5.822;2024-01-30T08:32:51;11.10;99.90
24444;DHT22;13346;50.984;5.822;2024-01-30T08:35:18;11.20;99.90
24444;DHT22;13346;50.984;5.822;2024-01-30T08:37:46;11.20;99.90
24444;DHT22;13346;50.984;5.822;2024-01-30T08:40:14;11.20;99.90
24444;DHT22;13346;50.984;5.822;2024-01-30T08:42:42;11.20;99.90
24444;DHT22;13346;50.984;5.822;2024-01-30T08:45:10;11.40;99.90
24444;DHT22;13346;50.984;5.822;2024-01-30T08:47:37;11.50;99.90
24444;DHT22;13346;50.984;5.822;2024-01-30T08:50:06;11.60;99.90
24444;DHT22;13346;50.984;5.822;2024-01-30T08:52:33;11.70;99.90
24444;DHT22;13346;50.984;5.822;2024-01-30T08:55:00;11.80;99.90
24444;DHT22;13346;50.984;5.822;2024-01-30T08:57:29;11.80;99.90
24444;DHT22;13346;50.984;5.822;2024-01-30T08:59:56;11.80;99.90
24444;DHT22;13346;50.984;5.822;2024-01-30T09:02:23;11.80;99.90
24444;DHT22;13346;50.984;5.822;2024-01-30T09:04:50;11.90;99.90
24444;DHT22;13346;50.984;5.822;2024-01-30T09:07:18;11.90;99.90
24444;DHT22;13346;50.984;5.822;2024-01-30T09:09:45;11.90;99.90
24444;DHT22;13346;50.984;5.822;2024-01-30T09:12:12;11.90;99.90
24444;DHT22;13346;50.984;5.822;2024-01-30T09:14:41;11.90;99.90
24444;DHT22;13346;50.984;5.822;2024-01-30T09:17:09;12.00;99.90
24444;DHT22;13346;50.984;5.822;2024-01-30T09:19:36;11.90;99.90
24444;DHT22;13346;50.984;5.822;2024-01-30T09:22:03;11.90;99.90
24444;DHT22;13346;50.984;5.822;2024-01-30T09:24:31;11.80;99.90
24444;DHT22;13346;50.984;5.822;2024-01-30T09:26:58;11.90;99.90
24444;DHT22;13346;50.984;5.822;2024-01-30T09:29:25;11.90;99.90
24444;DHT22;13346;50.984;5.822;2024-01-30T09:31:54;12.00;99.90
24444;DHT22;13346;50.984;5.822;2024-01-30T09:34:21;12.10;99.90
24444;DHT22;13346;50.984;5.822;2024-01-30T09:36:48;12.10;99.90
24444;DHT22;13346;50.984;5.822;2024-01-30T09:39:15;12.10;99.90
24444;DHT22;13346;50.984;5.822;2024-01-30T09:41:46;12.10;99.90
24444;DHT22;13346;50.984;5.822;2024-01-30T09:44:16;12.20;99.90
24444;DHT22;13346;50.984;5.822;2024-01-30T09:46:44;12.10;99.90
24444;DHT22;13346;50.984;5.822;2024-01-30T09:49:15;12.10;99.90
24444;DHT22;13346;50.984;5.822;2024-01-30T09:51:45;12.20;99.90
24444;DHT22;13346;50.984;5.822;2024-01-30T09:54:14;12.10;99.90
24444;DHT22;13346;50.984;5.822;2024-01-30T09:56:41;12.10;99.90
24444;DHT22;13346;50.984;5.822;2024-01-30T09:59:09;12.20;99.90
24444;DHT22;13346;50.984;5.822;2024-01-30T10:01:36;12.20;99.90
24444;DHT22;13346;50.984;5.822;2024-01-30T10:04:05;12.20;99.90
24444;DHT22;13346;50.984;5.822;2024-01-30T10:06:34;12.20;99.90
24444;DHT22;13346;50.984;5.822;2024-01-30T10:09:01;12.30;99.90
24444;DHT22;13346;50.984;5.822;2024-01-30T10:11:29;12.30;99.90
24444;DHT22;13346;50.984;5.822;2024-01-30T10:13:56;12.50;99.90
24444;DHT22;13346;50.984;5.822;2024-01-30T10:16:23;12.50;99.90
24444;DHT22;13346;50.984;5.822;2024-01-30T10:18:50;12.50;99.90
24444;DHT22;13346;50.984;5.822;2024-01-30T10:21:18;12.50;99.90
24444;DHT22;13346;50.984;5.822;2024-01-30T10:23:46;12.60;99.90
24444;DHT22;13346;50.984;5.822;2024-01-30T10:26:16;12.60;99.90
24444;DHT22;13346;50.984;5.822;2024-01-30T10:28:43;12.60;99.90
24444;DHT22;13346;50.984;5.822;2024-01-30T10:31:10;12.70;99.90
24444;DHT22;13346;50.984;5.822;2024-01-30T10:33:37;12.70;99.90
24444;DHT22;13346;50.984;5.822;2024-01-30T10:36:05;12.70;99.90
24444;DHT22;13346;50.984;5.822;2024-01-30T10:38:33;12.70;99.90
24444;DHT22;13346;50.984;5.822;2024-01-30T10:41:01;12.70;99.90
24444;DHT22;13346;50.984;5.822;2024-01-30T10:43:31;12.80;99.90
24444;DHT22;13346;50.984;5.822;2024-01-30T10:46:08;12.70;99.90
24444;DHT22;13346;50.984;5.822;2024-01-30T10:48:42;12.40;99.90
24444;DHT22;13346;50.984;5.822;2024-01-30T10:51:11;12.60;99.90
24444;DHT22;13346;50.984;5.822;2024-01-30T10:53:39;12.60;99.90
24444;DHT22;13346;50.984;5.822;2024-01-30T10:56:10;12.50;99.90
24444;DHT22;13346;50.984;5.822;2024-01-30T10:58:38;12.60;99.90
24444;DHT22;13346;50.984;5.822;2024-01-30T11:01:07;12.70;99.90
24444;DHT22;13346;50.984;5.822;2024-01-30T11:03:34;12.70;99.90
24444;DHT22;13346;50.984;5.822;2024-01-30T11:06:03;12.70;99.90
24444;DHT22;13346;50.984;5.822;2024-01-30T11:08:32;12.70;99.90
24444;DHT22;13346;50.984;5.822;2024-01-30T11:11:00;12.70;99.90
24444;DHT22;13346;50.984;5.822;2024-01-30T11:13:29;12.70;99.90
24444;DHT22;13346;50.984;5.822;2024-01-30T11:16:00;12.70;99.90
24444;DHT22;13346;50.984;5.822;2024-01-30T11:18:30;12.50;99.90
24444;DHT22;13346;50.984;5.822;2024-01-30T11:20:58;12.40;99.90
24444;DHT22;13346;50.984;5.822;2024-01-30T11:23:26;12.30;99.90
24444;DHT22;13346;50.984;5.822;2024-01-30T11:25:54;12.30;99.90
24444;DHT22;13346;50.984;5.822;2024-01-30T11:28:23;12.40;99.90
24444;DHT22;13346;50.984;5.822;2024-01-30T11:30:51;12.50;99.90
24444;DHT22;13346;50.984;5.822;2024-01-30T11:33:30;12.60;99.90
24444;DHT22;13346;50.984;5.822;2024-01-30T11:35:58;12.60;99.90
24444;DHT22;13346;50.984;5.822;2024-01-30T11:38:26;12.60;99.90
24444;DHT22;13346;50.984;5.822;2024-01-30T11:40:55;12.50;99.90
24444;DHT22;13346;50.984;5.822;2024-01-30T11:43:23;12.50;99.90
24444;DHT22;13346;50.984;5.822;2024-01-30T11:45:52;12.40;99.90
24444;DHT22;13346;50.984;5.822;2024-01-30T11:48:19;12.40;99.90
24444;DHT22;13346;50.984;5.822;2024-01-30T11:50:46;12.30;99.90
24444;DHT22;13346;50.984;5.822;2024-01-30T11:53:14;12.30;99.90
24444;DHT22;13346;50.984;5.822;2024-01-30T11:55:41;12.20;99.90
24444;DHT22;13346;50.984;5.822;2024-01-30T11:58:08;12.20;99.90
24444;DHT22;13346;50.984;5.822;2024-01-30T12:00:36;12.20;99.90
24444;DHT22;13346;50.984;5.822;2024-01-30T12:03:04;12.10;99.90
24444;DHT22;13346;50.984;5.822;2024-01-30T12:05:32;12.10;99.90
24444;DHT22;13346;50.984;5.822;2024-01-30T12:08:00;12.00;99.90
24444;DHT22;13346;50.984;5.822;2024-01-30T12:10:27;12.00;99.90
24444;DHT22;13346;50.984;5.822;2024-01-30T12:12:54;12.00;99.90
24444;DHT22;13346;50.984;5.822;2024-01-30T12:15:22;11.90;99.90
24444;DHT22;13346;50.984;5.822;2024-01-30T12:17:50;11.90;99.90
24444;DHT22;13346;50.984;5.822;2024-01-30T12:20:19;11.90;99.90
24444;DHT22;13346;50.984;5.822;2024-01-30T12:22:49;11.90;99.90
24444;DHT22;13346;50.984;5.822;2024-01-30T12:25:18;11.90;99.90
24444;DHT22;13346;50.984;5.822;2024-01-30T12:27:47;11.90;99.90
24444;DHT22;13346;50.984;5.822;2024-01-30T12:30:16;11.80;99.90
24444;DHT22;13346;50.984;5.822;2024-01-30T12:32:44;11.80;99.90
24444;DHT22;13346;50.984;5.822;2024-01-30T12:35:12;11.80;99.90
24444;DHT22;13346;50.984;5.822;2024-01-30T12:37:43;11.80;99.90
24444;DHT22;13346;50.984;5.822;2024-01-30T12:40:11;11.80;99.90
24444;DHT22;13346;50.984;5.822;2024-01-30T12:42:40;11.80;99.90
24444;DHT22;13346;50.984;5.822;2024-01-30T12:45:08;11.80;99.90
24444;DHT22;13346;50.984;5.822;2024-01-30T12:47:36;11.80;99.90
24444;DHT22;13346;50.984;5.822;2024-01-30T12:50:03;11.80;99.90
24444;DHT22;13346;50.984;5.822;2024-01-30T12:52:31;11.70;99.90
24444;DHT22;13346;50.984;5.822;2024-01-30T12:54:59;11.70;99.90
24444;DHT22;13346;50.984;5.822;2024-01-30T12:57:26;11.70;99.90
24444;DHT22;13346;50.984;5.822;2024-01-30T12:59:54;11.70;99.90
24444;DHT22;13346;50.984;5.822;2024-01-30T13:02:21;11.70;99.90
24444;DHT22;13346;50.984;5.822;2024-01-30T13:04:49;11.80;99.90
24444;DHT22;13346;50.984;5.822;2024-01-30T13:07:16;11.80;99.90
24444;DHT22;13346;50.984;5.822;2024-01-30T13:09:43;11.90;99.90
24444;DHT22;13346;50.984;5.822;2024-01-30T13:12:12;11.80;99.90
24444;DHT22;13346;50.984;5.822;2024-01-30T13:14:39;11.90;99.90
24444;DHT22;13346;50.984;5.822;2024-01-30T13:17:06;12.00;99.90
24444;DHT22;13346;50.984;5.822;2024-01-30T13:19:33;12.10;99.90
24444;DHT22;13346;50.984;5.822;2024-01-30T13:22:01;12.20;99.90
24444;DHT22;13346;50.984;5.822;2024-01-30T13:24:28;12.20;99.90
24444;DHT22;13346;50.984;5.822;2024-01-30T13:26:55;12.10;99.90
24444;DHT22;13346;50.984;5.822;2024-01-30T13:29:24;12.10;99.90
24444;DHT22;13346;50.984;5.822;2024-01-30T13:31:51;12.40;99.90
24444;DHT22;13346;50.984;5.822;2024-01-30T13:34:18;12.40;99.90
24444;DHT22;13346;50.984;5.822;2024-01-30T13:36:45;12.50;99.90
24444;DHT22;13346;50.984;5.822;2024-01-30T13:39:14;12.50;99.90
24444;DHT22;13346;50.984;5.822;2024-01-30T13:41:41;12.40;99.90
24444;DHT22;13346;50.984;5.822;2024-01-30T13:44:09;12.30;99.90
24444;DHT22;13346;50.984;5.822;2024-01-30T13:46:37;12.20;99.90
24444;DHT22;13346;50.984;5.822;2024-01-30T13:49:05;12.10;99.90
24444;DHT22;13346;50.984;5.822;2024-01-30T13:51:32;11.80;99.90
24444;DHT22;13346;50.984;5.822;2024-01-30T13:53:59;11.80;99.90
24444;DHT22;13346;50.984;5.822;2024-01-30T13:56:27;11.70;99.90
24444;DHT22;13346;50.984;5.822;2024-01-30T13:58:55;11.70;99.90
24444;DHT22;13346;50.984;5.822;2024-01-30T14:01:23;11.60;99.90
24444;DHT22;13346;50.984;5.822;2024-01-30T14:03:51;11.60;99.90
24444;DHT22;13346;50.984;5.822;2024-01-30T14:06:19;11.50;99.90
24444;DHT22;13346;50.984;5.822;2024-01-30T14:08:46;11.50;99.90
24444;DHT22;13346;50.984;5.822;2024-01-30T14:11:13;11.60;99.90
24444;DHT22;13346;50.984;5.822;2024-01-30T14:13:40;11.50;99.90
24444;DHT22;13346;50.984;5.822;2024-01-30T14:16:08;11.50;99.90
24444;DHT22;13346;50.984;5.822;2024-01-30T14:18:35;11.50;99.90
24444;DHT22;13346;50.984;5.822;2024-01-30T14:21:04;11.50;99.90
24444;DHT22;13346;50.984;5.822;2024-01-30T14:23:32;11.40;99.90
24444;DHT22;13346;50.984;5.822;2024-01-30T14:25:59;11.40;99.90
24444;DHT22;13346;50.984;5.822;2024-01-30T14:28:27;11.30;99.90
24444;DHT22;13346;50.984;5.822;2024-01-30T14:30:54;11.20;99.90
24444;DHT22;13346;50.984;5.822;2024-01-30T14:33:21;11.30;99.90
24444;DHT22;13346;50.984;5.822;2024-01-30T14:35:48;11.20;99.90
24444;DHT22;13346;50.984;5.822;2024-01-30T14:38:18;11.20;99.90
24444;DHT22;13346;50.984;5.822;2024-01-30T14:40:45;11.30;99.90
24444;DHT22;13346;50.984;5.822;2024-01-30T14:43:12;11.20;99.90
24444;DHT22;13346;50.984;5.822;2024-01-30T14:45:40;11.20;99.90
24444;DHT22;13346;50.984;5.822;2024-01-30T14:48:08;11.30;99.90
24444;DHT22;13346;50.984;5.822;2024-01-30T14:50:35;11.30;99.90
24444;DHT22;13346;50.984;5.822;2024-01-30T14:53:03;11.30;99.90
24444;DHT22;13346;50.984;5.822;2024-01-30T14:55:32;11.40;99.90
24444;DHT22;13346;50.984;5.822;2024-01-30T14:57:59;11.30;99.90
24444;DHT22;13346;50.984;5.822;2024-01-30T15:00:27;11.20;99.90
24444;DHT22;13346;50.984;5.822;2024-01-30T15:02:55;11.20;99.90
24444;DHT22;13346;50.984;5.822;2024-01-30T15:05:23;11.50;99.90
24444;DHT22;13346;50.984;5.822;2024-01-30T15:07:50;11.90;99.90
24444;DHT22;13346;50.984;5.822;2024-01-30T15:10:17;11.90;99.90
24444;DHT22;13346;50.984;5.822;2024-01-30T15:12:46;11.60;99.90
24444;DHT22;13346;50.984;5.822;2024-01-30T15:15:13;11.80;99.90
24444;DHT22;13346;50.984;5.822;2024-01-30T15:17:40;12.10;99.90
24444;DHT22;13346;50.984;5.822;2024-01-30T15:20:08;12.20;99.90
24444;DHT22;13346;50.984;5.822;2024-01-30T15:22:35;12.30;99.90
24444;DHT22;13346;50.984;5.822;2024-01-30T15:25:03;12.30;99.90
24444;DHT22;13346;50.984;5.822;2024-01-30T15:27:31;12.10;99.90
24444;DHT22;13346;50.984;5.822;2024-01-30T15:29:59;11.90;99.90
24444;DHT22;13346;50.984;5.822;2024-01-30T15:32:27;11.90;99.90
24444;DHT22;13346;50.984;5.822;2024-01-30T15:34:54;11.90;99.90